Terminal Aerodrome Forecast
Issued by NWS Buffalo, NY

Home | Current Version | Previous Version | Text Only | Print | Product List | Glossary On
Versions: 1 2 3 4 5 6 7 8 9 10 11 12 13 14 15 16 17 18 19 20 21 22 23 24
650
FTUS41 KBUF 240903 AAA
TAFART
TAF AMD
KART 240903Z 2409/2506 17008KT P6SM OVC060
     FM241000 18010KT 3SM -SHSN OVC040
     FM241200 17011KT 4SM -SNPL OVC045 WS020/22035KT
     FM241300 18014KT 6SM -RA OVC025 WS020/24045KT
     FM242000 21012KT 6SM -RA OVC015
     FM242300 VRB03KT 5SM -RA BR OVC007=

USA.gov is the U.S. government's official web portal to all federal, state and local government web resources and services.